sensor_id;sensor_type;location;lat;lon;timestamp;P1;durP1;ratioP1;P2;durP2;ratioP2
41480;SDS011;27217;51.220;5.308;2023-05-21T00:02:09;6.10;;;3.70;;
41480;SDS011;27217;51.220;5.308;2023-05-21T00:04:38;6.97;;;4.00;;
41480;SDS011;27217;51.220;5.308;2023-05-21T00:07:05;7.47;;;3.75;;
41480;SDS011;27217;51.220;5.308;2023-05-21T00:09:32;4.20;;;3.45;;
41480;SDS011;27217;51.220;5.308;2023-05-21T00:11:58;6.63;;;3.70;;
41480;SDS011;27217;51.220;5.308;2023-05-21T00:14:24;8.70;;;4.00;;
41480;SDS011;27217;51.220;5.308;2023-05-21T00:16:50;6.50;;;3.40;;
41480;SDS011;27217;51.220;5.308;2023-05-21T00:19:16;6.93;;;3.72;;
41480;SDS011;27217;51.220;5.308;2023-05-21T00:21:42;5.22;;;4.07;;
41480;SDS011;27217;51.220;5.308;2023-05-21T00:24:09;5.43;;;4.00;;
41480;SDS011;27217;51.220;5.308;2023-05-21T00:26:36;6.63;;;4.30;;
41480;SDS011;27217;51.220;5.308;2023-05-21T00:29:02;5.95;;;4.00;;
41480;SDS011;27217;51.220;5.308;2023-05-21T00:31:28;6.88;;;4.15;;
41480;SDS011;27217;51.220;5.308;2023-05-21T00:33:54;6.15;;;4.18;;
41480;SDS011;27217;51.220;5.308;2023-05-21T00:36:20;7.80;;;4.50;;
41480;SDS011;27217;51.220;5.308;2023-05-21T00:38:48;6.43;;;4.63;;
41480;SDS011;27217;51.220;5.308;2023-05-21T00:41:15;6.15;;;4.45;;
41480;SDS011;27217;51.220;5.308;2023-05-21T00:43:42;8.82;;;4.70;;
41480;SDS011;27217;51.220;5.308;2023-05-21T00:46:12;8.65;;;5.07;;
41480;SDS011;27217;51.220;5.308;2023-05-21T00:48:45;11.93;;;4.63;;
41480;SDS011;27217;51.220;5.308;2023-05-21T00:51:12;7.25;;;4.63;;
41480;SDS011;27217;51.220;5.308;2023-05-21T00:53:39;7.05;;;4.80;;
41480;SDS011;27217;51.220;5.308;2023-05-21T00:56:07;8.32;;;4.82;;
41480;SDS011;27217;51.220;5.308;2023-05-21T00:58:33;6.53;;;4.95;;
41480;SDS011;27217;51.220;5.308;2023-05-21T01:01:00;8.27;;;5.38;;
41480;SDS011;27217;51.220;5.308;2023-05-21T01:03:31;16.58;;;5.20;;
41480;SDS011;27217;51.220;5.308;2023-05-21T01:06:03;9.05;;;5.60;;
41480;SDS011;27217;51.220;5.308;2023-05-21T01:08:29;7.75;;;5.45;;
41480;SDS011;27217;51.220;5.308;2023-05-21T01:10:55;7.47;;;5.65;;
41480;SDS011;27217;51.220;5.308;2023-05-21T01:13:23;7.15;;;5.55;;
41480;SDS011;27217;51.220;5.308;2023-05-21T01:15:51;14.75;;;5.93;;
41480;SDS011;27217;51.220;5.308;2023-05-21T01:18:18;13.50;;;5.50;;
41480;SDS011;27217;51.220;5.308;2023-05-21T01:20:44;10.30;;;5.75;;
41480;SDS011;27217;51.220;5.308;2023-05-21T01:23:17;10.13;;;5.95;;
41480;SDS011;27217;51.220;5.308;2023-05-21T01:25:44;11.10;;;5.47;;
41480;SDS011;27217;51.220;5.308;2023-05-21T01:28:11;8.05;;;5.78;;
41480;SDS011;27217;51.220;5.308;2023-05-21T01:30:41;7.85;;;5.63;;
41480;SDS011;27217;51.220;5.308;2023-05-21T01:33:16;11.73;;;6.85;;
41480;SDS011;27217;51.220;5.308;2023-05-21T01:35:46;10.77;;;6.07;;
41480;SDS011;27217;51.220;5.308;2023-05-21T01:38:25;11.55;;;6.40;;
41480;SDS011;27217;51.220;5.308;2023-05-21T01:41:02;11.43;;;5.60;;
41480;SDS011;27217;51.220;5.308;2023-05-21T01:43:32;12.07;;;6.05;;
41480;SDS011;27217;51.220;5.308;2023-05-21T01:46:01;8.40;;;6.18;;
41480;SDS011;27217;51.220;5.308;2023-05-21T01:48:29;11.48;;;6.30;;
41480;SDS011;27217;51.220;5.308;2023-05-21T01:50:59;6.45;;;5.53;;
41480;SDS011;27217;51.220;5.308;2023-05-21T01:53:28;8.27;;;5.85;;
41480;SDS011;27217;51.220;5.308;2023-05-21T01:55:54;7.45;;;5.72;;
41480;SDS011;27217;51.220;5.308;2023-05-21T01:58:20;12.30;;;6.13;;
41480;SDS011;27217;51.220;5.308;2023-05-21T02:00:47;9.40;;;5.88;;
41480;SDS011;27217;51.220;5.308;2023-05-21T02:03:16;9.63;;;6.00;;
41480;SDS011;27217;51.220;5.308;2023-05-21T02:05:43;10.70;;;5.80;;
41480;SDS011;27217;51.220;5.308;2023-05-21T02:08:09;9.65;;;6.57;;
41480;SDS011;27217;51.220;5.308;2023-05-21T02:10:37;10.63;;;6.78;;
41480;SDS011;27217;51.220;5.308;2023-05-21T02:13:02;7.05;;;5.55;;
41480;SDS011;27217;51.220;5.308;2023-05-21T02:15:29;11.40;;;6.22;;
41480;SDS011;27217;51.220;5.308;2023-05-21T02:17:58;8.50;;;5.68;;
41480;SDS011;27217;51.220;5.308;2023-05-21T02:20:24;10.52;;;5.65;;
41480;SDS011;27217;51.220;5.308;2023-05-21T02:22:50;8.82;;;5.47;;
41480;SDS011;27217;51.220;5.308;2023-05-21T02:25:16;7.43;;;5.68;;
41480;SDS011;27217;51.220;5.308;2023-05-21T02:27:43;9.63;;;6.18;;
41480;SDS011;27217;51.220;5.308;2023-05-21T02:30:11;7.65;;;5.60;;
41480;SDS011;27217;51.220;5.308;2023-05-21T02:32:39;9.32;;;6.18;;
41480;SDS011;27217;51.220;5.308;2023-05-21T02:35:10;9.02;;;6.47;;
41480;SDS011;27217;51.220;5.308;2023-05-21T02:37:39;8.60;;;5.85;;
41480;SDS011;27217;51.220;5.308;2023-05-21T02:40:06;9.40;;;6.00;;
41480;SDS011;27217;51.220;5.308;2023-05-21T02:42:34;11.68;;;5.75;;
41480;SDS011;27217;51.220;5.308;2023-05-21T02:45:04;9.88;;;6.47;;
41480;SDS011;27217;51.220;5.308;2023-05-21T02:47:34;8.85;;;6.45;;
41480;SDS011;27217;51.220;5.308;2023-05-21T02:50:00;8.80;;;6.35;;
41480;SDS011;27217;51.220;5.308;2023-05-21T02:52:25;12.23;;;6.15;;
41480;SDS011;27217;51.220;5.308;2023-05-21T02:54:51;8.00;;;6.03;;
41480;SDS011;27217;51.220;5.308;2023-05-21T02:57:17;10.25;;;6.35;;
41480;SDS011;27217;51.220;5.308;2023-05-21T02:59:46;9.48;;;7.18;;
41480;SDS011;27217;51.220;5.308;2023-05-21T03:02:12;10.05;;;6.93;;
41480;SDS011;27217;51.220;5.308;2023-05-21T03:04:38;12.20;;;7.25;;
41480;SDS011;27217;51.220;5.308;2023-05-21T03:09:38;11.35;;;7.78;;
41480;SDS011;27217;51.220;5.308;2023-05-21T03:12:04;11.32;;;7.72;;
41480;SDS011;27217;51.220;5.308;2023-05-21T03:14:31;14.07;;;7.22;;
41480;SDS011;27217;51.220;5.308;2023-05-21T03:16:57;11.60;;;7.22;;
41480;SDS011;27217;51.220;5.308;2023-05-21T03:19:24;12.73;;;7.43;;
41480;SDS011;27217;51.220;5.308;2023-05-21T03:21:50;12.27;;;6.82;;
41480;SDS011;27217;51.220;5.308;2023-05-21T03:24:16;11.00;;;7.03;;
41480;SDS011;27217;51.220;5.308;2023-05-21T03:26:42;11.38;;;6.47;;
41480;SDS011;27217;51.220;5.308;2023-05-21T03:29:08;9.35;;;6.40;;
41480;SDS011;27217;51.220;5.308;2023-05-21T03:31:34;12.85;;;6.72;;
41480;SDS011;27217;51.220;5.308;2023-05-21T03:34:01;12.45;;;6.55;;
41480;SDS011;27217;51.220;5.308;2023-05-21T03:36:26;9.90;;;5.88;;
41480;SDS011;27217;51.220;5.308;2023-05-21T03:38:52;11.68;;;6.07;;
41480;SDS011;27217;51.220;5.308;2023-05-21T03:41:18;9.80;;;6.15;;
41480;SDS011;27217;51.220;5.308;2023-05-21T03:43:45;14.23;;;6.18;;
41480;SDS011;27217;51.220;5.308;2023-05-21T03:46:10;14.07;;;6.55;;
41480;SDS011;27217;51.220;5.308;2023-05-21T03:48:36;7.95;;;6.20;;
41480;SDS011;27217;51.220;5.308;2023-05-21T03:51:02;9.55;;;5.88;;
41480;SDS011;27217;51.220;5.308;2023-05-21T03:53:29;9.82;;;6.57;;
41480;SDS011;27217;51.220;5.308;2023-05-21T03:55:55;7.93;;;6.05;;
41480;SDS011;27217;51.220;5.308;2023-05-21T03:58:21;12.82;;;5.80;;
41480;SDS011;27217;51.220;5.308;2023-05-21T04:00:47;10.18;;;5.20;;
41480;SDS011;27217;51.220;5.308;2023-05-21T04:03:13;7.10;;;5.10;;
41480;SDS011;27217;51.220;5.308;2023-05-21T04:05:39;9.32;;;6.03;;
41480;SDS011;27217;51.220;5.308;2023-05-21T04:08:06;8.95;;;5.85;;
41480;SDS011;27217;51.220;5.308;2023-05-21T04:10:33;10.82;;;5.88;;
41480;SDS011;27217;51.220;5.308;2023-05-21T04:12:59;7.53;;;5.40;;
41480;SDS011;27217;51.220;5.308;2023-05-21T04:15:25;9.02;;;5.13;;
41480;SDS011;27217;51.220;5.308;2023-05-21T04:17:54;7.53;;;5.20;;
41480;SDS011;27217;51.220;5.308;2023-05-21T04:20:20;9.27;;;5.05;;
41480;SDS011;27217;51.220;5.308;2023-05-21T04:22:47;8.25;;;5.13;;
41480;SDS011;27217;51.220;5.308;2023-05-21T04:25:13;9.27;;;5.60;;
41480;SDS011;27217;51.220;5.308;2023-05-21T04:27:39;11.10;;;5.40;;
41480;SDS011;27217;51.220;5.308;2023-05-21T04:30:06;7.95;;;5.28;;
41480;SDS011;27217;51.220;5.308;2023-05-21T04:32:33;9.18;;;5.93;;
41480;SDS011;27217;51.220;5.308;2023-05-21T04:34:59;8.25;;;5.10;;
41480;SDS011;27217;51.220;5.308;2023-05-21T04:37:26;7.97;;;5.40;;
41480;SDS011;27217;51.220;5.308;2023-05-21T04:39:53;12.57;;;5.40;;
41480;SDS011;27217;51.220;5.308;2023-05-21T04:42:21;7.15;;;4.90;;
41480;SDS011;27217;51.220;5.308;2023-05-21T04:44:50;10.98;;;5.88;;
41480;SDS011;27217;51.220;5.308;2023-05-21T04:47:16;8.48;;;4.97;;
41480;SDS011;27217;51.220;5.308;2023-05-21T04:49:45;7.15;;;4.90;;
41480;SDS011;27217;51.220;5.308;2023-05-21T04:52:11;11.73;;;6.32;;
41480;SDS011;27217;51.220;5.308;2023-05-21T04:54:38;9.45;;;5.55;;
41480;SDS011;27217;51.220;5.308;2023-05-21T04:57:05;9.27;;;5.80;;
41480;SDS011;27217;51.220;5.308;2023-05-21T04:59:31;9.93;;;5.20;;
41480;SDS011;27217;51.220;5.308;2023-05-21T05:01:58;8.55;;;5.38;;
41480;SDS011;27217;51.220;5.308;2023-05-21T05:04:25;8.57;;;5.63;;
41480;SDS011;27217;51.220;5.308;2023-05-21T05:06:50;18.25;;;5.28;;
41480;SDS011;27217;51.220;5.308;2023-05-21T05:09:17;7.10;;;5.35;;
41480;SDS011;27217;51.220;5.308;2023-05-21T05:11:48;6.63;;;4.90;;
41480;SDS011;27217;51.220;5.308;2023-05-21T05:14:14;9.88;;;6.18;;
41480;SDS011;27217;51.220;5.308;2023-05-21T05:16:41;8.05;;;5.57;;
41480;SDS011;27217;51.220;5.308;2023-05-21T05:19:07;7.85;;;5.63;;
41480;SDS011;27217;51.220;5.308;2023-05-21T05:21:33;12.60;;;5.47;;
41480;SDS011;27217;51.220;5.308;2023-05-21T05:23:59;10.32;;;6.28;;
41480;SDS011;27217;51.220;5.308;2023-05-21T05:26:25;9.05;;;5.60;;
41480;SDS011;27217;51.220;5.308;2023-05-21T05:28:52;7.78;;;5.65;;
41480;SDS011;27217;51.220;5.308;2023-05-21T05:31:18;8.48;;;5.60;;
41480;SDS011;27217;51.220;5.308;2023-05-21T05:33:44;10.50;;;6.18;;
41480;SDS011;27217;51.220;5.308;2023-05-21T05:36:12;9.60;;;5.80;;
41480;SDS011;27217;51.220;5.308;2023-05-21T05:38:38;8.73;;;5.45;;
41480;SDS011;27217;51.220;5.308;2023-05-21T05:41:04;10.10;;;5.75;;
41480;SDS011;27217;51.220;5.308;2023-05-21T05:43:30;12.82;;;5.60;;
41480;SDS011;27217;51.220;5.308;2023-05-21T05:45:56;10.70;;;5.57;;
41480;SDS011;27217;51.220;5.308;2023-05-21T05:48:23;10.20;;;5.68;;
41480;SDS011;27217;51.220;5.308;2023-05-21T05:50:49;8.50;;;5.50;;
41480;SDS011;27217;51.220;5.308;2023-05-21T05:53:18;9.32;;;5.80;;
41480;SDS011;27217;51.220;5.308;2023-05-21T05:55:45;7.30;;;5.35;;
41480;SDS011;27217;51.220;5.308;2023-05-21T05:58:12;10.48;;;5.40;;
41480;SDS011;27217;51.220;5.308;2023-05-21T06:00:38;11.18;;;5.97;;
41480;SDS011;27217;51.220;5.308;2023-05-21T06:03:04;10.82;;;5.90;;
41480;SDS011;27217;51.220;5.308;2023-05-21T06:05:30;9.93;;;5.82;;
41480;SDS011;27217;51.220;5.308;2023-05-21T06:07:56;13.82;;;5.78;;
41480;SDS011;27217;51.220;5.308;2023-05-21T06:10:21;9.63;;;6.10;;
41480;SDS011;27217;51.220;5.308;2023-05-21T06:12:47;8.20;;;5.75;;
41480;SDS011;27217;51.220;5.308;2023-05-21T06:15:13;11.25;;;5.50;;
41480;SDS011;27217;51.220;5.308;2023-05-21T06:17:40;8.00;;;6.13;;
41480;SDS011;27217;51.220;5.308;2023-05-21T06:20:09;9.45;;;5.60;;
41480;SDS011;27217;51.220;5.308;2023-05-21T06:22:35;9.48;;;5.78;;
41480;SDS011;27217;51.220;5.308;2023-05-21T06:25:02;7.25;;;5.68;;
41480;SDS011;27217;51.220;5.308;2023-05-21T06:27:29;12.25;;;6.05;;
41480;SDS011;27217;51.220;5.308;2023-05-21T06:29:55;9.75;;;5.22;;
41480;SDS011;27217;51.220;5.308;2023-05-21T06:32:23;12.65;;;5.57;;
41480;SDS011;27217;51.220;5.308;2023-05-21T06:34:49;10.82;;;5.97;;
41480;SDS011;27217;51.220;5.308;2023-05-21T06:37:19;10.07;;;5.72;;
41480;SDS011;27217;51.220;5.308;2023-05-21T06:39:48;10.95;;;5.50;;
41480;SDS011;27217;51.220;5.308;2023-05-21T06:42:14;7.63;;;6.20;;
41480;SDS011;27217;51.220;5.308;2023-05-21T06:44:40;9.60;;;6.40;;
41480;SDS011;27217;51.220;5.308;2023-05-21T06:47:06;9.57;;;5.95;;
41480;SDS011;27217;51.220;5.308;2023-05-21T06:49:35;7.97;;;5.78;;
41480;SDS011;27217;51.220;5.308;2023-05-21T06:52:01;12.27;;;6.18;;
41480;SDS011;27217;51.220;5.308;2023-05-21T06:54:28;7.53;;;5.88;;
41480;SDS011;27217;51.220;5.308;2023-05-21T06:56:54;8.15;;;5.72;;
41480;SDS011;27217;51.220;5.308;2023-05-21T06:59:20;9.27;;;5.22;;
41480;SDS011;27217;51.220;5.308;2023-05-21T07:01:45;12.63;;;5.72;;
41480;SDS011;27217;51.220;5.308;2023-05-21T07:04:11;8.00;;;6.10;;
41480;SDS011;27217;51.220;5.308;2023-05-21T07:06:37;13.75;;;5.97;;
41480;SDS011;27217;51.220;5.308;2023-05-21T07:09:03;10.18;;;6.30;;
41480;SDS011;27217;51.220;5.308;2023-05-21T07:11:32;10.45;;;6.65;;
41480;SDS011;27217;51.220;5.308;2023-05-21T07:13:58;11.57;;;6.05;;
41480;SDS011;27217;51.220;5.308;2023-05-21T07:16:25;11.73;;;6.07;;
41480;SDS011;27217;51.220;5.308;2023-05-21T07:18:51;10.77;;;7.45;;
41480;SDS011;27217;51.220;5.308;2023-05-21T07:21:17;11.43;;;6.88;;
41480;SDS011;27217;51.220;5.308;2023-05-21T07:23:43;9.55;;;6.25;;
41480;SDS011;27217;51.220;5.308;2023-05-21T07:26:09;9.52;;;5.93;;
41480;SDS011;27217;51.220;5.308;2023-05-21T07:28:35;7.65;;;6.00;;
41480;SDS011;27217;51.220;5.308;2023-05-21T07:31:01;16.77;;;6.25;;
41480;SDS011;27217;51.220;5.308;2023-05-21T07:33:27;9.52;;;6.28;;
41480;SDS011;27217;51.220;5.308;2023-05-21T07:35:53;11.38;;;6.10;;
41480;SDS011;27217;51.220;5.308;2023-05-21T07:38:19;13.23;;;6.38;;
41480;SDS011;27217;51.220;5.308;2023-05-21T07:40:45;10.32;;;6.65;;
41480;SDS011;27217;51.220;5.308;2023-05-21T07:43:11;11.68;;;6.93;;
41480;SDS011;27217;51.220;5.308;2023-05-21T07:45:37;10.20;;;6.38;;
41480;SDS011;27217;51.220;5.308;2023-05-21T07:48:03;10.70;;;7.47;;
41480;SDS011;27217;51.220;5.308;2023-05-21T07:50:29;10.80;;;7.47;;
41480;SDS011;27217;51.220;5.308;2023-05-21T07:52:55;11.23;;;7.47;;
41480;SDS011;27217;51.220;5.308;2023-05-21T07:55:21;12.95;;;7.22;;
41480;SDS011;27217;51.220;5.308;2023-05-21T07:57:47;9.02;;;6.53;;
41480;SDS011;27217;51.220;5.308;2023-05-21T08:00:16;10.02;;;7.07;;
41480;SDS011;27217;51.220;5.308;2023-05-21T08:02:43;10.70;;;7.32;;
41480;SDS011;27217;51.220;5.308;2023-05-21T08:05:09;15.45;;;7.78;;
41480;SDS011;27217;51.220;5.308;2023-05-21T08:07:35;12.98;;;7.60;;
41480;SDS011;27217;51.220;5.308;2023-05-21T08:10:01;12.88;;;6.43;;
41480;SDS011;27217;51.220;5.308;2023-05-21T08:12:28;9.88;;;7.25;;
41480;SDS011;27217;51.220;5.308;2023-05-21T08:14:55;13.68;;;7.55;;
41480;SDS011;27217;51.220;5.308;2023-05-21T08:17:22;12.48;;;8.20;;
41480;SDS011;27217;51.220;5.308;2023-05-21T08:19:48;10.57;;;8.13;;
41480;SDS011;27217;51.220;5.308;2023-05-21T08:22:13;13.35;;;7.72;;
41480;SDS011;27217;51.220;5.308;2023-05-21T08:24:39;14.82;;;8.40;;
41480;SDS011;27217;51.220;5.308;2023-05-21T08:27:05;11.93;;;7.78;;
41480;SDS011;27217;51.220;5.308;2023-05-21T08:29:31;14.23;;;8.10;;
41480;SDS011;27217;51.220;5.308;2023-05-21T08:31:57;13.15;;;7.47;;
41480;SDS011;27217;51.220;5.308;2023-05-21T08:34:23;18.42;;;8.38;;
41480;SDS011;27217;51.220;5.308;2023-05-21T08:36:52;16.15;;;8.00;;
41480;SDS011;27217;51.220;5.308;2023-05-21T08:39:18;12.02;;;8.98;;
41480;SDS011;27217;51.220;5.308;2023-05-21T08:41:44;14.30;;;8.25;;
41480;SDS011;27217;51.220;5.308;2023-05-21T08:44:13;12.57;;;8.40;;
41480;SDS011;27217;51.220;5.308;2023-05-21T08:46:44;13.93;;;8.75;;
41480;SDS011;27217;51.220;5.308;2023-05-21T08:49:14;10.90;;;7.90;;
41480;SDS011;27217;51.220;5.308;2023-05-21T08:51:43;9.88;;;8.10;;
41480;SDS011;27217;51.220;5.308;2023-05-21T08:54:11;10.82;;;7.82;;
41480;SDS011;27217;51.220;5.308;2023-05-21T08:56:37;14.23;;;8.82;;
41480;SDS011;27217;51.220;5.308;2023-05-21T08:59:09;11.15;;;8.85;;
41480;SDS011;27217;51.220;5.308;2023-05-21T09:01:37;15.57;;;8.60;;
41480;SDS011;27217;51.220;5.308;2023-05-21T09:04:06;14.00;;;8.82;;
41480;SDS011;27217;51.220;5.308;2023-05-21T09:06:33;16.52;;;9.70;;
41480;SDS011;27217;51.220;5.308;2023-05-21T09:09:01;14.07;;;9.15;;
41480;SDS011;27217;51.220;5.308;2023-05-21T09:11:33;11.77;;;9.00;;
41480;SDS011;27217;51.220;5.308;2023-05-21T09:13:59;12.20;;;8.65;;
41480;SDS011;27217;51.220;5.308;2023-05-21T09:16:30;13.32;;;8.93;;
41480;SDS011;27217;51.220;5.308;2023-05-21T09:18:56;21.27;;;9.10;;
41480;SDS011;27217;51.220;5.308;2023-05-21T09:21:25;19.08;;;9.25;;
41480;SDS011;27217;51.220;5.308;2023-05-21T09:23:56;12.23;;;8.45;;
41480;SDS011;27217;51.220;5.308;2023-05-21T09:26:23;11.48;;;9.02;;
41480;SDS011;27217;51.220;5.308;2023-05-21T09:28:50;17.38;;;9.00;;
41480;SDS011;27217;51.220;5.308;2023-05-21T09:31:21;14.70;;;9.70;;
41480;SDS011;27217;51.220;5.308;2023-05-21T09:33:48;17.35;;;9.80;;
41480;SDS011;27217;51.220;5.308;2023-05-21T09:36:18;16.13;;;9.02;;
41480;SDS011;27217;51.220;5.308;2023-05-21T09:38:44;19.23;;;10.13;;
41480;SDS011;27217;51.220;5.308;2023-05-21T09:41:12;15.65;;;9.13;;
41480;SDS011;27217;51.220;5.308;2023-05-21T09:43:42;14.82;;;9.13;;
41480;SDS011;27217;51.220;5.308;2023-05-21T09:46:09;13.50;;;9.20;;
41480;SDS011;27217;51.220;5.308;2023-05-21T09:53:47;16.98;;;9.80;;
41480;SDS011;27217;51.220;5.308;2023-05-21T09:56:12;12.20;;;8.35;;
41480;SDS011;27217;51.220;5.308;2023-05-21T09:58:38;11.73;;;9.15;;
41480;SDS011;27217;51.220;5.308;2023-05-21T10:01:05;13.52;;;8.90;;
41480;SDS011;27217;51.220;5.308;2023-05-21T10:03:32;16.52;;;9.85;;
41480;SDS011;27217;51.220;5.308;2023-05-21T10:06:02;15.90;;;9.43;;
41480;SDS011;27217;51.220;5.308;2023-05-21T10:08:30;17.77;;;11.00;;
41480;SDS011;27217;51.220;5.308;2023-05-21T10:11:00;16.07;;;10.50;;
41480;SDS011;27217;51.220;5.308;2023-05-21T10:13:29;14.65;;;10.38;;
41480;SDS011;27217;51.220;5.308;2023-05-21T10:16:00;20.05;;;9.88;;
41480;SDS011;27217;51.220;5.308;2023-05-21T10:18:27;16.20;;;10.02;;
41480;SDS011;27217;51.220;5.308;2023-05-21T10:20:55;20.77;;;10.82;;
41480;SDS011;27217;51.220;5.308;2023-05-21T10:23:22;13.52;;;9.25;;
41480;SDS011;27217;51.220;5.308;2023-05-21T10:25:48;11.90;;;9.13;;
41480;SDS011;27217;51.220;5.308;2023-05-21T10:28:16;16.95;;;10.30;;
41480;SDS011;27217;51.220;5.308;2023-05-21T10:30:44;17.40;;;10.85;;
41480;SDS011;27217;51.220;5.308;2023-05-21T10:33:11;16.92;;;9.63;;
41480;SDS011;27217;51.220;5.308;2023-05-21T10:35:43;18.52;;;9.98;;
41480;SDS011;27217;51.220;5.308;2023-05-21T10:38:12;15.18;;;9.75;;
41480;SDS011;27217;51.220;5.308;2023-05-21T10:40:38;20.25;;;10.20;;
41480;SDS011;27217;51.220;5.308;2023-05-21T10:48:57;18.27;;;10.02;;
41480;SDS011;27217;51.220;5.308;2023-05-21T10:51:28;13.93;;;9.60;;
41480;SDS011;27217;51.220;5.308;2023-05-21T10:57:04;10.77;;;8.43;;
41480;SDS011;27217;51.220;5.308;2023-05-21T10:59:47;14.63;;;9.32;;
41480;SDS011;27217;51.220;5.308;2023-05-21T11:02:13;14.90;;;10.63;;
41480;SDS011;27217;51.220;5.308;2023-05-21T11:04:43;22.80;;;10.57;;
41480;SDS011;27217;51.220;5.308;2023-05-21T11:07:12;18.13;;;9.63;;
41480;SDS011;27217;51.220;5.308;2023-05-21T11:09:39;12.15;;;9.18;;
41480;SDS011;27217;51.220;5.308;2023-05-21T11:12:07;14.23;;;9.63;;
41480;SDS011;27217;51.220;5.308;2023-05-21T11:14:37;11.63;;;9.13;;
41480;SDS011;27217;51.220;5.308;2023-05-21T11:22:28;16.13;;;8.60;;
41480;SDS011;27217;51.220;5.308;2023-05-21T11:24:53;14.02;;;9.32;;
41480;SDS011;27217;51.220;5.308;2023-05-21T11:27:29;18.58;;;10.18;;
41480;SDS011;27217;51.220;5.308;2023-05-21T11:29:58;14.43;;;10.15;;
41480;SDS011;27217;51.220;5.308;2023-05-21T11:32:27;12.43;;;8.90;;
41480;SDS011;27217;51.220;5.308;2023-05-21T11:34:54;16.73;;;9.90;;
41480;SDS011;27217;51.220;5.308;2023-05-21T11:37:28;18.17;;;9.77;;
41480;SDS011;27217;51.220;5.308;2023-05-21T11:39:56;16.40;;;9.93;;
41480;SDS011;27217;51.220;5.308;2023-05-21T11:42:29;13.15;;;10.05;;
41480;SDS011;27217;51.220;5.308;2023-05-21T11:45:02;17.80;;;10.48;;
41480;SDS011;27217;51.220;5.308;2023-05-21T11:47:28;18.25;;;9.75;;
41480;SDS011;27217;51.220;5.308;2023-05-21T11:49:57;18.80;;;9.63;;
41480;SDS011;27217;51.220;5.308;2023-05-21T11:52:28;16.35;;;9.82;;
41480;SDS011;27217;51.220;5.308;2023-05-21T11:54:57;14.95;;;10.68;;
41480;SDS011;27217;51.220;5.308;2023-05-21T11:57:27;13.35;;;9.73;;
41480;SDS011;27217;51.220;5.308;2023-05-21T11:59:59;18.92;;;10.13;;
41480;SDS011;27217;51.220;5.308;2023-05-21T12:02:29;18.17;;;10.57;;
41480;SDS011;27217;51.220;5.308;2023-05-21T12:04:58;20.20;;;10.75;;
41480;SDS011;27217;51.220;5.308;2023-05-21T12:07:27;12.82;;;10.07;;
41480;SDS011;27217;51.220;5.308;2023-05-21T12:09:53;15.32;;;11.15;;
41480;SDS011;27217;51.220;5.308;2023-05-21T12:12:20;13.38;;;9.73;;
41480;SDS011;27217;51.220;5.308;2023-05-21T12:14:48;13.23;;;9.35;;
41480;SDS011;27217;51.220;5.308;2023-05-21T12:17:15;11.30;;;8.95;;
41480;SDS011;27217;51.220;5.308;2023-05-21T12:19:42;13.75;;;9.30;;
41480;SDS011;27217;51.220;5.308;2023-05-21T12:22:12;12.07;;;9.32;;
41480;SDS011;27217;51.220;5.308;2023-05-21T12:24:40;12.20;;;9.82;;
41480;SDS011;27217;51.220;5.308;2023-05-21T12:27:08;11.30;;;9.13;;
41480;SDS011;27217;51.220;5.308;2023-05-21T12:29:38;18.73;;;10.15;;
41480;SDS011;27217;51.220;5.308;2023-05-21T12:32:06;16.95;;;10.18;;
41480;SDS011;27217;51.220;5.308;2023-05-21T12:37:07;14.45;;;9.68;;
41480;SDS011;27217;51.220;5.308;2023-05-21T12:39:36;17.52;;;10.65;;
41480;SDS011;27217;51.220;5.308;2023-05-21T12:42:07;16.15;;;9.65;;
41480;SDS011;27217;51.220;5.308;2023-05-21T12:44:33;13.65;;;10.60;;
41480;SDS011;27217;51.220;5.308;2023-05-21T12:46:59;18.73;;;9.60;;
41480;SDS011;27217;51.220;5.308;2023-05-21T12:49:33;16.98;;;10.07;;
41480;SDS011;27217;51.220;5.308;2023-05-21T12:52:07;12.70;;;9.75;;
41480;SDS011;27217;51.220;5.308;2023-05-21T12:54:35;14.23;;;9.93;;
41480;SDS011;27217;51.220;5.308;2023-05-21T12:57:13;16.67;;;11.15;;
41480;SDS011;27217;51.220;5.308;2023-05-21T12:59:43;15.85;;;10.48;;
41480;SDS011;27217;51.220;5.308;2023-05-21T13:02:13;17.70;;;10.63;;
41480;SDS011;27217;51.220;5.308;2023-05-21T13:05:03;14.77;;;9.90;;
41480;SDS011;27217;51.220;5.308;2023-05-21T13:07:32;16.33;;;10.48;;
41480;SDS011;27217;51.220;5.308;2023-05-21T13:10:02;15.80;;;9.45;;
41480;SDS011;27217;51.220;5.308;2023-05-21T13:12:30;14.05;;;10.75;;
41480;SDS011;27217;51.220;5.308;2023-05-21T13:14:58;14.10;;;10.38;;
41480;SDS011;27217;51.220;5.308;2023-05-21T13:17:25;13.40;;;10.68;;
41480;SDS011;27217;51.220;5.308;2023-05-21T13:22:48;19.30;;;10.63;;
41480;SDS011;27217;51.220;5.308;2023-05-21T13:25:15;15.57;;;10.63;;
41480;SDS011;27217;51.220;5.308;2023-05-21T13:27:44;17.85;;;11.07;;
41480;SDS011;27217;51.220;5.308;2023-05-21T13:30:14;14.48;;;10.45;;
41480;SDS011;27217;51.220;5.308;2023-05-21T13:32:41;17.17;;;11.82;;
41480;SDS011;27217;51.220;5.308;2023-05-21T13:35:08;17.38;;;11.35;;
41480;SDS011;27217;51.220;5.308;2023-05-21T13:37:35;16.42;;;10.63;;
41480;SDS011;27217;51.220;5.308;2023-05-21T13:40:03;17.65;;;11.20;;
41480;SDS011;27217;51.220;5.308;2023-05-21T13:42:34;14.85;;;10.52;;
41480;SDS011;27217;51.220;5.308;2023-05-21T13:45:02;14.52;;;10.15;;
41480;SDS011;27217;51.220;5.308;2023-05-21T13:47:31;12.75;;;9.65;;
41480;SDS011;27217;51.220;5.308;2023-05-21T13:49:57;16.92;;;11.38;;
41480;SDS011;27217;51.220;5.308;2023-05-21T13:52:22;12.70;;;9.43;;
41480;SDS011;27217;51.220;5.308;2023-05-21T13:54:51;17.88;;;9.90;;
41480;SDS011;27217;51.220;5.308;2023-05-21T13:57:17;18.15;;;11.10;;
41480;SDS011;27217;51.220;5.308;2023-05-21T13:59:42;13.10;;;10.63;;
41480;SDS011;27217;51.220;5.308;2023-05-21T14:02:09;14.50;;;9.57;;
41480;SDS011;27217;51.220;5.308;2023-05-21T14:04:35;13.75;;;10.43;;
41480;SDS011;27217;51.220;5.308;2023-05-21T14:07:01;13.52;;;9.65;;
41480;SDS011;27217;51.220;5.308;2023-05-21T14:09:30;17.98;;;11.38;;
41480;SDS011;27217;51.220;5.308;2023-05-21T14:11:57;15.73;;;11.07;;
41480;SDS011;27217;51.220;5.308;2023-05-21T14:14:23;13.38;;;10.40;;
41480;SDS011;27217;51.220;5.308;2023-05-21T14:16:49;14.80;;;10.88;;
41480;SDS011;27217;51.220;5.308;2023-05-21T14:19:15;14.32;;;10.10;;
41480;SDS011;27217;51.220;5.308;2023-05-21T14:21:42;14.68;;;10.05;;
41480;SDS011;27217;51.220;5.308;2023-05-21T14:24:08;15.07;;;9.90;;
41480;SDS011;27217;51.220;5.308;2023-05-21T14:26:36;14.57;;;10.57;;
41480;SDS011;27217;51.220;5.308;2023-05-21T14:31:30;15.48;;;10.05;;
41480;SDS011;27217;51.220;5.308;2023-05-21T14:33:57;11.57;;;10.15;;
41480;SDS011;27217;51.220;5.308;2023-05-21T14:36:23;15.70;;;10.02;;
41480;SDS011;27217;51.220;5.308;2023-05-21T14:38:49;16.23;;;10.02;;
41480;SDS011;27217;51.220;5.308;2023-05-21T14:41:14;17.10;;;10.70;;
41480;SDS011;27217;51.220;5.308;2023-05-21T14:43:41;14.80;;;10.18;;
41480;SDS011;27217;51.220;5.308;2023-05-21T14:46:07;17.98;;;11.20;;
41480;SDS011;27217;51.220;5.308;2023-05-21T14:48:33;17.40;;;9.75;;
41480;SDS011;27217;51.220;5.308;2023-05-21T14:50:59;13.02;;;9.32;;
41480;SDS011;27217;51.220;5.308;2023-05-21T14:53:25;18.35;;;9.82;;
41480;SDS011;27217;51.220;5.308;2023-05-21T14:55:51;13.48;;;9.38;;
41480;SDS011;27217;51.220;5.308;2023-05-21T14:58:18;15.30;;;10.18;;
41480;SDS011;27217;51.220;5.308;2023-05-21T15:00:44;16.88;;;9.93;;
41480;SDS011;27217;51.220;5.308;2023-05-21T15:03:10;15.07;;;8.98;;
41480;SDS011;27217;51.220;5.308;2023-05-21T15:05:36;16.25;;;10.05;;
41480;SDS011;27217;51.220;5.308;2023-05-21T15:08:02;14.35;;;9.35;;